sensor_id;sensor_type;location;lat;lon;timestamp;pressure;altitude;pressure_sealevel;temperature;humidity
47366;BME280;33105;47.964;7.982;2023-12-20T00:00:13;96843.09;;;6.91;89.19
47366;BME280;33105;47.964;7.982;2023-12-20T00:03:14;96847.81;;;6.84;88.94
47366;BME280;33105;47.964;7.982;2023-12-20T00:06:15;96857.34;;;6.63;89.88
47366;BME280;33105;47.964;7.982;2023-12-20T00:09:17;96861.47;;;6.54;90.80
47366;BME280;33105;47.964;7.982;2023-12-20T00:12:18;96846.72;;;6.50;91.95
47366;BME280;33105;47.964;7.982;2023-12-20T00:15:19;96857.69;;;6.55;92.08
47366;BME280;33105;47.964;7.982;2023-12-20T00:18:20;96843.88;;;6.45;92.17
47366;BME280;33105;47.964;7.982;2023-12-20T00:21:21;96830.38;;;6.27;93.75
47366;BME280;33105;47.964;7.982;2023-12-20T00:24:23;96829.31;;;6.28;94.04
47366;BME280;33105;47.964;7.982;2023-12-20T00:27:24;96823.66;;;6.18;94.51
47366;BME280;33105;47.964;7.982;2023-12-20T00:30:25;96833.97;;;6.51;94.59
47366;BME280;33105;47.964;7.982;2023-12-20T00:33:26;96834.09;;;6.56;93.65
47366;BME280;33105;47.964;7.982;2023-12-20T00:36:28;96834.44;;;6.36;94.71
47366;BME280;33105;47.964;7.982;2023-12-20T00:39:29;96829.97;;;6.53;93.92
47366;BME280;33105;47.964;7.982;2023-12-20T00:42:31;96850.47;;;6.49;94.96
47366;BME280;33105;47.964;7.982;2023-12-20T00:45:33;96829.16;;;6.88;92.80
47366;BME280;33105;47.964;7.982;2023-12-20T00:48:34;96830.91;;;7.17;91.79
47366;BME280;33105;47.964;7.982;2023-12-20T00:51:35;96816.72;;;7.15;91.76
47366;BME280;33105;47.964;7.982;2023-12-20T00:54:36;96822.50;;;6.95;93.73
47366;BME280;33105;47.964;7.982;2023-12-20T00:57:38;96811.66;;;6.95;95.46
47366;BME280;33105;47.964;7.982;2023-12-20T01:00:39;96805.41;;;6.83;97.54
47366;BME280;33105;47.964;7.982;2023-12-20T01:03:40;96820.41;;;6.74;98.28
47366;BME280;33105;47.964;7.982;2023-12-20T01:06:41;96806.97;;;6.91;98.94
47366;BME280;33105;47.964;7.982;2023-12-20T01:09:42;96819.22;;;6.81;99.38
47366;BME280;33105;47.964;7.982;2023-12-20T01:12:43;96814.38;;;6.95;99.45
47366;BME280;33105;47.964;7.982;2023-12-20T01:15:45;96817.22;;;6.77;100.00
47366;BME280;33105;47.964;7.982;2023-12-20T01:18:46;96828.78;;;6.49;100.00
47366;BME280;33105;47.964;7.982;2023-12-20T01:21:47;96820.88;;;6.59;100.00
47366;BME280;33105;47.964;7.982;2023-12-20T01:24:48;96833.28;;;6.55;100.00
47366;BME280;33105;47.964;7.982;2023-12-20T01:27:49;96838.44;;;6.45;100.00
47366;BME280;33105;47.964;7.982;2023-12-20T01:30:51;96825.38;;;6.42;100.00
47366;BME280;33105;47.964;7.982;2023-12-20T01:33:52;96829.47;;;6.44;100.00
47366;BME280;33105;47.964;7.982;2023-12-20T01:36:53;96836.53;;;6.34;100.00
47366;BME280;33105;47.964;7.982;2023-12-20T01:39:54;96835.13;;;6.31;100.00
47366;BME280;33105;47.964;7.982;2023-12-20T01:43:06;96835.50;;;6.35;100.00
47366;BME280;33105;47.964;7.982;2023-12-20T01:46:08;96838.66;;;6.32;100.00
47366;BME280;33105;47.964;7.982;2023-12-20T01:49:09;96847.72;;;6.14;100.00
47366;BME280;33105;47.964;7.982;2023-12-20T01:52:11;96850.53;;;6.19;100.00
47366;BME280;33105;47.964;7.982;2023-12-20T01:55:12;96868.50;;;5.90;100.00
47366;BME280;33105;47.964;7.982;2023-12-20T01:58:16;96858.88;;;6.06;100.00
47366;BME280;33105;47.964;7.982;2023-12-20T02:01:18;96856.66;;;5.85;100.00
47366;BME280;33105;47.964;7.982;2023-12-20T02:04:20;96852.69;;;5.69;100.00
47366;BME280;33105;47.964;7.982;2023-12-20T02:07:22;96850.34;;;5.72;100.00
47366;BME280;33105;47.964;7.982;2023-12-20T02:10:24;96855.22;;;5.82;100.00
47366;BME280;33105;47.964;7.982;2023-12-20T02:13:25;96860.47;;;5.65;100.00
47366;BME280;33105;47.964;7.982;2023-12-20T02:16:27;96843.53;;;5.52;100.00
47366;BME280;33105;47.964;7.982;2023-12-20T02:19:30;96840.66;;;5.46;100.00
47366;BME280;33105;47.964;7.982;2023-12-20T02:22:31;96837.06;;;5.53;100.00
47366;BME280;33105;47.964;7.982;2023-12-20T02:25:33;96842.66;;;5.39;100.00
47366;BME280;33105;47.964;7.982;2023-12-20T02:28:37;96842.56;;;5.28;100.00
47366;BME280;33105;47.964;7.982;2023-12-20T02:31:38;96832.13;;;5.31;100.00
47366;BME280;33105;47.964;7.982;2023-12-20T02:34:39;96836.47;;;5.32;100.00
47366;BME280;33105;47.964;7.982;2023-12-20T02:37:40;96831.28;;;5.31;100.00
47366;BME280;33105;47.964;7.982;2023-12-20T02:40:44;96824.59;;;5.33;100.00
47366;BME280;33105;47.964;7.982;2023-12-20T02:43:45;96825.41;;;5.34;100.00
47366;BME280;33105;47.964;7.982;2023-12-20T02:46:47;96830.91;;;5.27;100.00
47366;BME280;33105;47.964;7.982;2023-12-20T02:49:48;96840.03;;;5.15;100.00
47366;BME280;33105;47.964;7.982;2023-12-20T02:52:50;96833.47;;;5.22;100.00
47366;BME280;33105;47.964;7.982;2023-12-20T02:55:51;96840.41;;;5.18;100.00
47366;BME280;33105;47.964;7.982;2023-12-20T02:58:52;96836.88;;;5.18;100.00
47366;BME280;33105;47.964;7.982;2023-12-20T03:01:53;96839.47;;;5.24;100.00
47366;BME280;33105;47.964;7.982;2023-12-20T03:04:55;96838.97;;;5.16;100.00
47366;BME280;33105;47.964;7.982;2023-12-20T03:07:56;96845.88;;;5.11;100.00
47366;BME280;33105;47.964;7.982;2023-12-20T03:10:59;96851.09;;;5.13;100.00
47366;BME280;33105;47.964;7.982;2023-12-20T03:14:00;96861.91;;;5.13;100.00
47366;BME280;33105;47.964;7.982;2023-12-20T03:17:02;96861.69;;;5.15;100.00
47366;BME280;33105;47.964;7.982;2023-12-20T03:20:03;96856.94;;;5.10;100.00
47366;BME280;33105;47.964;7.982;2023-12-20T03:23:05;96853.56;;;5.15;100.00
47366;BME280;33105;47.964;7.982;2023-12-20T03:26:07;96861.91;;;5.13;100.00
47366;BME280;33105;47.964;7.982;2023-12-20T03:29:11;96867.63;;;5.05;100.00
47366;BME280;33105;47.964;7.982;2023-12-20T03:37:08;96892.25;;;4.78;100.00
47366;BME280;33105;47.964;7.982;2023-12-20T03:40:39;96876.88;;;4.72;100.00
47366;BME280;33105;47.964;7.982;2023-12-20T03:48:52;96897.69;;;4.47;100.00
47366;BME280;33105;47.964;7.982;2023-12-20T04:01:58;96892.47;;;4.21;100.00
47366;BME280;33105;47.964;7.982;2023-12-20T04:05:53;96892.59;;;4.39;100.00
47366;BME280;33105;47.964;7.982;2023-12-20T04:13:31;96903.13;;;4.47;100.00
47366;BME280;33105;47.964;7.982;2023-12-20T04:22:45;96897.56;;;4.42;100.00
47366;BME280;33105;47.964;7.982;2023-12-20T04:27:20;96889.66;;;4.40;100.00
47366;BME280;33105;47.964;7.982;2023-12-20T05:09:55;96919.94;;;4.49;100.00
47366;BME280;33105;47.964;7.982;2023-12-20T05:12:56;96923.63;;;4.61;100.00
47366;BME280;33105;47.964;7.982;2023-12-20T05:15:57;96936.16;;;4.56;100.00
47366;BME280;33105;47.964;7.982;2023-12-20T05:18:58;96938.25;;;4.54;100.00
47366;BME280;33105;47.964;7.982;2023-12-20T05:22:02;96936.34;;;4.54;100.00
47366;BME280;33105;47.964;7.982;2023-12-20T05:25:03;96933.66;;;4.54;100.00
47366;BME280;33105;47.964;7.982;2023-12-20T05:28:05;96938.88;;;4.49;100.00
47366;BME280;33105;47.964;7.982;2023-12-20T05:31:07;96942.22;;;4.51;100.00
47366;BME280;33105;47.964;7.982;2023-12-20T05:34:18;96933.19;;;4.32;100.00
47366;BME280;33105;47.964;7.982;2023-12-20T05:37:32;96950.06;;;4.28;100.00
47366;BME280;33105;47.964;7.982;2023-12-20T05:49:48;96962.31;;;4.30;100.00
47366;BME280;33105;47.964;7.982;2023-12-20T05:54:12;96953.56;;;4.35;100.00
47366;BME280;33105;47.964;7.982;2023-12-20T05:57:26;96953.31;;;4.43;100.00
47366;BME280;33105;47.964;7.982;2023-12-20T06:00:27;96956.84;;;4.43;100.00
47366;BME280;33105;47.964;7.982;2023-12-20T06:08:27;96974.34;;;4.41;100.00
47366;BME280;33105;47.964;7.982;2023-12-20T06:16:26;96983.84;;;4.50;100.00
47366;BME280;33105;47.964;7.982;2023-12-20T06:19:27;96991.13;;;4.50;100.00
47366;BME280;33105;47.964;7.982;2023-12-20T06:22:29;96984.84;;;4.56;100.00
47366;BME280;33105;47.964;7.982;2023-12-20T06:25:30;96982.34;;;4.54;100.00
47366;BME280;33105;47.964;7.982;2023-12-20T06:28:31;96985.25;;;4.59;100.00
47366;BME280;33105;47.964;7.982;2023-12-20T06:31:33;96990.03;;;4.57;100.00
47366;BME280;33105;47.964;7.982;2023-12-20T06:34:34;96988.38;;;4.56;100.00
47366;BME280;33105;47.964;7.982;2023-12-20T06:37:35;96990.28;;;4.49;100.00
47366;BME280;33105;47.964;7.982;2023-12-20T06:40:36;96999.09;;;4.44;100.00
47366;BME280;33105;47.964;7.982;2023-12-20T06:43:38;96997.44;;;4.43;100.00
47366;BME280;33105;47.964;7.982;2023-12-20T06:46:39;97004.03;;;4.48;100.00
47366;BME280;33105;47.964;7.982;2023-12-20T06:49:41;97005.19;;;4.65;100.00
47366;BME280;33105;47.964;7.982;2023-12-20T06:52:42;97013.97;;;4.60;100.00
47366;BME280;33105;47.964;7.982;2023-12-20T06:55:43;97011.50;;;4.52;100.00
47366;BME280;33105;47.964;7.982;2023-12-20T06:58:45;97022.94;;;4.54;100.00
47366;BME280;33105;47.964;7.982;2023-12-20T07:01:49;97021.66;;;4.63;100.00
47366;BME280;33105;47.964;7.982;2023-12-20T07:04:50;97031.06;;;4.54;100.00
47366;BME280;33105;47.964;7.982;2023-12-20T07:07:52;97026.44;;;4.61;100.00
47366;BME280;33105;47.964;7.982;2023-12-20T07:10:53;97039.75;;;4.63;100.00
47366;BME280;33105;47.964;7.982;2023-12-20T07:13:55;97042.91;;;4.60;100.00
47366;BME280;33105;47.964;7.982;2023-12-20T07:16:56;97046.44;;;4.60;100.00
47366;BME280;33105;47.964;7.982;2023-12-20T07:19:58;97035.59;;;4.60;100.00
47366;BME280;33105;47.964;7.982;2023-12-20T07:22:59;97042.69;;;4.61;100.00
47366;BME280;33105;47.964;7.982;2023-12-20T07:26:00;97061.00;;;4.59;100.00
47366;BME280;33105;47.964;7.982;2023-12-20T07:29:02;97051.22;;;4.58;100.00
47366;BME280;33105;47.964;7.982;2023-12-20T07:32:05;97058.69;;;4.63;100.00
47366;BME280;33105;47.964;7.982;2023-12-20T07:35:06;97070.16;;;4.58;100.00
47366;BME280;33105;47.964;7.982;2023-12-20T07:38:08;97069.94;;;4.60;100.00
47366;BME280;33105;47.964;7.982;2023-12-20T07:41:10;97072.44;;;4.61;100.00
47366;BME280;33105;47.964;7.982;2023-12-20T07:44:11;97073.47;;;4.67;100.00
47366;BME280;33105;47.964;7.982;2023-12-20T07:47:12;97081.38;;;4.68;100.00
47366;BME280;33105;47.964;7.982;2023-12-20T07:50:16;97080.13;;;4.64;100.00
47366;BME280;33105;47.964;7.982;2023-12-20T07:53:18;97082.63;;;4.66;100.00
47366;BME280;33105;47.964;7.982;2023-12-20T07:56:19;97083.19;;;4.74;100.00
47366;BME280;33105;47.964;7.982;2023-12-20T07:59:21;97087.59;;;4.69;100.00
47366;BME280;33105;47.964;7.982;2023-12-20T08:02:22;97093.47;;;4.59;100.00
47366;BME280;33105;47.964;7.982;2023-12-20T08:05:23;97086.38;;;4.65;100.00
47366;BME280;33105;47.964;7.982;2023-12-20T08:08:24;97090.53;;;4.67;100.00
47366;BME280;33105;47.964;7.982;2023-12-20T08:11:26;97091.72;;;4.71;100.00
47366;BME280;33105;47.964;7.982;2023-12-20T08:14:27;97095.72;;;4.69;100.00
47366;BME280;33105;47.964;7.982;2023-12-20T08:17:28;97092.13;;;4.75;100.00
47366;BME280;33105;47.964;7.982;2023-12-20T08:20:29;97104.00;;;4.74;100.00
47366;BME280;33105;47.964;7.982;2023-12-20T08:23:30;97107.19;;;4.64;100.00
47366;BME280;33105;47.964;7.982;2023-12-20T08:26:32;97104.81;;;4.81;100.00
47366;BME280;33105;47.964;7.982;2023-12-20T08:29:34;97100.75;;;4.59;100.00
47366;BME280;33105;47.964;7.982;2023-12-20T08:32:35;97107.41;;;4.63;100.00
47366;BME280;33105;47.964;7.982;2023-12-20T08:35:36;97116.09;;;4.71;100.00
47366;BME280;33105;47.964;7.982;2023-12-20T08:38:38;97112.22;;;4.54;100.00
47366;BME280;33105;47.964;7.982;2023-12-20T08:41:39;97115.31;;;4.64;100.00
47366;BME280;33105;47.964;7.982;2023-12-20T08:44:40;97118.44;;;4.61;100.00
47366;BME280;33105;47.964;7.982;2023-12-20T08:47:41;97125.94;;;4.59;100.00
47366;BME280;33105;47.964;7.982;2023-12-20T08:50:45;97125.09;;;4.65;100.00
47366;BME280;33105;47.964;7.982;2023-12-20T08:53:46;97118.84;;;4.65;100.00
47366;BME280;33105;47.964;7.982;2023-12-20T08:56:48;97129.03;;;4.69;100.00
47366;BME280;33105;47.964;7.982;2023-12-20T08:59:50;97133.13;;;4.78;100.00
47366;BME280;33105;47.964;7.982;2023-12-20T09:02:51;97125.03;;;4.72;100.00
47366;BME280;33105;47.964;7.982;2023-12-20T09:05:52;97126.31;;;4.69;100.00
47366;BME280;33105;47.964;7.982;2023-12-20T09:08:53;97140.19;;;4.79;100.00
47366;BME280;33105;47.964;7.982;2023-12-20T09:12:03;97140.72;;;4.57;100.00
47366;BME280;33105;47.964;7.982;2023-12-20T09:16:03;97146.53;;;4.60;100.00
47366;BME280;33105;47.964;7.982;2023-12-20T09:19:04;97151.53;;;4.63;100.00
47366;BME280;33105;47.964;7.982;2023-12-20T09:22:11;97153.22;;;4.51;100.00
47366;BME280;33105;47.964;7.982;2023-12-20T09:40:54;97180.09;;;4.46;100.00
47366;BME280;33105;47.964;7.982;2023-12-20T09:49:29;97174.66;;;4.53;100.00
47366;BME280;33105;47.964;7.982;2023-12-20T09:52:36;97171.91;;;4.66;100.00
47366;BME280;33105;47.964;7.982;2023-12-20T10:01:04;97161.84;;;4.28;100.00
47366;BME280;33105;47.964;7.982;2023-12-20T10:08:48;97171.44;;;4.18;100.00
47366;BME280;33105;47.964;7.982;2023-12-20T10:17:55;97159.41;;;4.14;100.00
47366;BME280;33105;47.964;7.982;2023-12-20T10:38:54;97155.69;;;3.95;100.00
47366;BME280;33105;47.964;7.982;2023-12-20T10:42:07;97160.88;;;3.76;100.00
47366;BME280;33105;47.964;7.982;2023-12-20T10:45:52;97156.53;;;3.82;100.00
47366;BME280;33105;47.964;7.982;2023-12-20T10:49:46;97141.97;;;3.76;100.00
47366;BME280;33105;47.964;7.982;2023-12-20T11:01:58;97151.56;;;3.53;100.00
47366;BME280;33105;47.964;7.982;2023-12-20T11:05:41;97152.81;;;3.44;100.00
47366;BME280;33105;47.964;7.982;2023-12-20T11:44:31;97128.97;;;4.25;100.00
47366;BME280;33105;47.964;7.982;2023-12-20T11:49:07;97141.09;;;4.16;100.00
47366;BME280;33105;47.964;7.982;2023-12-20T11:52:33;97127.72;;;4.21;100.00
47366;BME280;33105;47.964;7.982;2023-12-20T12:05:10;97111.09;;;4.24;100.00
47366;BME280;33105;47.964;7.982;2023-12-20T12:13:51;97106.16;;;4.14;100.00
47366;BME280;33105;47.964;7.982;2023-12-20T12:17:30;97102.97;;;4.24;100.00
47366;BME280;33105;47.964;7.982;2023-12-20T12:22:12;97111.09;;;4.24;100.00
47366;BME280;33105;47.964;7.982;2023-12-20T12:34:34;97101.78;;;4.13;100.00
47366;BME280;33105;47.964;7.982;2023-12-20T12:56:30;97119.41;;;4.22;100.00
47366;BME280;33105;47.964;7.982;2023-12-20T13:00:18;97113.22;;;4.15;100.00
47366;BME280;33105;47.964;7.982;2023-12-20T13:14:02;97100.28;;;4.24;100.00
47366;BME280;33105;47.964;7.982;2023-12-20T13:17:15;97094.69;;;4.19;100.00
47366;BME280;33105;47.964;7.982;2023-12-20T13:20:46;97094.09;;;4.10;100.00
47366;BME280;33105;47.964;7.982;2023-12-20T13:25:36;97104.50;;;4.13;100.00
47366;BME280;33105;47.964;7.982;2023-12-20T13:29:23;97104.56;;;3.93;100.00
47366;BME280;33105;47.964;7.982;2023-12-20T13:32:46;97109.75;;;3.88;100.00
47366;BME280;33105;47.964;7.982;2023-12-20T13:36:30;97115.00;;;3.70;100.00
47366;BME280;33105;47.964;7.982;2023-12-20T13:40:30;97105.00;;;3.64;100.00
47366;BME280;33105;47.964;7.982;2023-12-20T13:43:41;97103.97;;;3.52;100.00
47366;BME280;33105;47.964;7.982;2023-12-20T13:46:45;97107.09;;;3.49;100.00
47366;BME280;33105;47.964;7.982;2023-12-20T13:49:47;97102.53;;;3.42;100.00
47366;BME280;33105;47.964;7.982;2023-12-20T13:52:49;97109.59;;;3.57;100.00
47366;BME280;33105;47.964;7.982;2023-12-20T13:55:50;97109.59;;;3.44;100.00
47366;BME280;33105;47.964;7.982;2023-12-20T13:58:53;97110.41;;;3.51;100.00
47366;BME280;33105;47.964;7.982;2023-12-20T14:01:54;97112.50;;;3.49;100.00
47366;BME280;33105;47.964;7.982;2023-12-20T14:05:11;97104.19;;;3.57;100.00
47366;BME280;33105;47.964;7.982;2023-12-20T14:08:15;97110.81;;;3.48;100.00
47366;BME280;33105;47.964;7.982;2023-12-20T14:15:14;97112.28;;;3.37;100.00
47366;BME280;33105;47.964;7.982;2023-12-20T14:18:51;97109.16;;;3.47;100.00
47366;BME280;33105;47.964;7.982;2023-12-20T14:22:21;97105.41;;;3.48;100.00
47366;BME280;33105;47.964;7.982;2023-12-20T14:30:14;97098.34;;;3.47;100.00
47366;BME280;33105;47.964;7.982;2023-12-20T14:34:40;97087.94;;;3.83;100.00
47366;BME280;33105;47.964;7.982;2023-12-20T14:39:02;97092.28;;;3.91;100.00
47366;BME280;33105;47.964;7.982;2023-12-20T14:42:04;97087.94;;;3.76;100.00
47366;BME280;33105;47.964;7.982;2023-12-20T14:45:16;97083.16;;;3.79;100.00
47366;BME280;33105;47.964;7.982;2023-12-20T14:53:47;97090.88;;;3.62;100.00
47366;BME280;33105;47.964;7.982;2023-12-20T15:10:16;97100.03;;;3.67;100.00
47366;BME280;33105;47.964;7.982;2023-12-20T15:14:06;97100.34;;;4.04;100.00
47366;BME280;33105;47.964;7.982;2023-12-20T15:25:30;97108.50;;;3.84;100.00
47366;BME280;33105;47.964;7.982;2023-12-20T15:28:36;97092.50;;;3.89;100.00
47366;BME280;33105;47.964;7.982;2023-12-20T15:31:47;97086.88;;;3.84;100.00
47366;BME280;33105;47.964;7.982;2023-12-20T15:38:52;97076.41;;;4.07;100.00
47366;BME280;33105;47.964;7.982;2023-12-20T15:41:53;97074.97;;;3.98;100.00
47366;BME280;33105;47.964;7.982;2023-12-20T15:44:55;97076.25;;;3.96;100.00
47366;BME280;33105;47.964;7.982;2023-12-20T15:47:59;97079.38;;;3.93;100.00
47366;BME280;33105;47.964;7.982;2023-12-20T15:51:07;97079.31;;;4.13;97.48
47366;BME280;33105;47.964;7.982;2023-12-20T15:54:12;97078.91;;;4.09;98.56
47366;BME280;33105;47.964;7.982;2023-12-20T15:57:13;97101.81;;;4.00;97.80
47366;BME280;33105;47.964;7.982;2023-12-20T16:00:27;97095.63;;;3.86;100.00
47366;BME280;33105;47.964;7.982;2023-12-20T16:03:50;97088.13;;;3.88;99.58
47366;BME280;33105;47.964;7.982;2023-12-20T16:06:52;97094.34;;;3.95;99.10
47366;BME280;33105;47.964;7.982;2023-12-20T16:09:56;97090.41;;;3.91;97.42
47366;BME280;33105;47.964;7.982;2023-12-20T16:12:58;97086.69;;;3.86;96.80
47366;BME280;33105;47.964;7.982;2023-12-20T16:16:09;97076.06;;;3.84;99.75
47366;BME280;33105;47.964;7.982;2023-12-20T16:20:42;97086.50;;;3.61;100.00
47366;BME280;33105;47.964;7.982;2023-12-20T16:23:47;97087.78;;;3.38;100.00
47366;BME280;33105;47.964;7.982;2023-12-20T16:28:24;97086.72;;;3.59;100.00
47366;BME280;33105;47.964;7.982;2023-12-20T16:40:11;97092.09;;;3.79;100.00
47366;BME280;33105;47.964;7.982;2023-12-20T16:43:22;97096.66;;;3.79;100.00
47366;BME280;33105;47.964;7.982;2023-12-20T16:46:24;97082.72;;;3.88;99.86
47366;BME280;33105;47.964;7.982;2023-12-20T16:49:25;97085.38;;;4.08;95.21
47366;BME280;33105;47.964;7.982;2023-12-20T16:52:39;97089.59;;;3.91;98.53
47366;BME280;33105;47.964;7.982;2023-12-20T16:56:10;97085.22;;;3.76;100.00
47366;BME280;33105;47.964;7.982;2023-12-20T16:59:42;97097.69;;;3.78;100.00
47366;BME280;33105;47.964;7.982;2023-12-20T17:03:01;97098.72;;;3.83;100.00
47366;BME280;33105;47.964;7.982;2023-12-20T17:10:59;97097.50;;;3.72;100.00
47366;BME280;33105;47.964;7.982;2023-12-20T17:14:10;97103.31;;;3.89;97.50
47366;BME280;33105;47.964;7.982;2023-12-20T17:21:39;97100.16;;;3.99;97.97
47366;BME280;33105;47.964;7.982;2023-12-20T17:25:06;97101.44;;;3.83;100.00
47366;BME280;33105;47.964;7.982;2023-12-20T17:28:27;97098.72;;;3.83;99.29
47366;BME280;33105;47.964;7.982;2023-12-20T17:41:23;97104.97;;;3.90;98.45
47366;BME280;33105;47.964;7.982;2023-12-20T17:53:17;97114.31;;;3.94;96.69
47366;BME280;33105;47.964;7.982;2023-12-20T17:57:38;97111.75;;;4.19;92.54
47366;BME280;33105;47.964;7.982;2023-12-20T18:05:51;97111.41;;;3.83;100.00
47366;BME280;33105;47.964;7.982;2023-12-20T18:24:19;97129.94;;;3.59;100.00
47366;BME280;33105;47.964;7.982;2023-12-20T18:27:21;97118.22;;;3.98;94.68
47366;BME280;33105;47.964;7.982;2023-12-20T18:30:22;97127.38;;;3.97;95.92
47366;BME280;33105;47.964;7.982;2023-12-20T18:33:23;97131.75;;;4.05;94.45
47366;BME280;33105;47.964;7.982;2023-12-20T18:36:25;97128.88;;;3.87;95.69
47366;BME280;33105;47.964;7.982;2023-12-20T18:39:32;97141.94;;;4.03;94.36
47366;BME280;33105;47.964;7.982;2023-12-20T18:42:34;97135.91;;;4.01;96.22
47366;BME280;33105;47.964;7.982;2023-12-20T18:45:35;97128.63;;;4.01;95.49
47366;BME280;33105;47.964;7.982;2023-12-20T18:48:40;97124.09;;;3.95;97.25
47366;BME280;33105;47.964;7.982;2023-12-20T18:51:52;97116.97;;;4.01;97.45
47366;BME280;33105;47.964;7.982;2023-12-20T18:59:32;97092.44;;;4.02;98.26
47366;BME280;33105;47.964;7.982;2023-12-20T19:02:49;97089.94;;;4.07;96.48
47366;BME280;33105;47.964;7.982;2023-12-20T19:06:27;97091.19;;;4.12;95.58
47366;BME280;33105;47.964;7.982;2023-12-20T19:09:54;97093.88;;;4.12;95.81
47366;BME280;33105;47.964;7.982;2023-12-20T19:12:56;97101.38;;;4.09;95.85
47366;BME280;33105;47.964;7.982;2023-12-20T19:15:58;97102.84;;;4.05;95.23
47366;BME280;33105;47.964;7.982;2023-12-20T19:18:59;97103.25;;;4.09;95.05
47366;BME280;33105;47.964;7.982;2023-12-20T19:22:00;97096.16;;;4.15;95.78
47366;BME280;33105;47.964;7.982;2023-12-20T19:25:02;97086.84;;;3.97;96.77
47366;BME280;33105;47.964;7.982;2023-12-20T19:28:09;97074.53;;;4.15;95.41
47366;BME280;33105;47.964;7.982;2023-12-20T19:31:11;97061.44;;;4.12;97.44
47366;BME280;33105;47.964;7.982;2023-12-20T19:34:47;97040.22;;;4.08;99.75
47366;BME280;33105;47.964;7.982;2023-12-20T20:14:30;97006.88;;;4.21;95.54
47366;BME280;33105;47.964;7.982;2023-12-20T20:26:23;96985.50;;;4.20;95.44
47366;BME280;33105;47.964;7.982;2023-12-20T20:29:55;96984.94;;;4.42;92.33
47366;BME280;33105;47.964;7.982;2023-12-20T20:33:17;96975.41;;;4.33;93.05
47366;BME280;33105;47.964;7.982;2023-12-20T20:40:22;96970.41;;;4.37;93.02
47366;BME280;33105;47.964;7.982;2023-12-20T20:43:27;96976.50;;;4.26;92.52
47366;BME280;33105;47.964;7.982;2023-12-20T20:51:37;96993.28;;;4.41;93.36
47366;BME280;33105;47.964;7.982;2023-12-20T20:54:43;96984.78;;;4.31;91.06
47366;BME280;33105;47.964;7.982;2023-12-20T20:58:17;96985.09;;;4.48;91.24
47366;BME280;33105;47.964;7.982;2023-12-20T21:01:50;96978.25;;;4.76;86.10
47366;BME280;33105;47.964;7.982;2023-12-20T21:10:29;96992.84;;;4.44;90.71
47366;BME280;33105;47.964;7.982;2023-12-20T21:18:58;96975.47;;;4.58;91.87
47366;BME280;33105;47.964;7.982;2023-12-20T21:26:48;96975.38;;;4.40;97.04
47366;BME280;33105;47.964;7.982;2023-12-20T21:39:09;96956.69;;;4.32;95.49
47366;BME280;33105;47.964;7.982;2023-12-20T21:43:29;96953.81;;;4.27;96.44
47366;BME280;33105;47.964;7.982;2023-12-20T21:46:29;96957.56;;;4.26;94.83
47366;BME280;33105;47.964;7.982;2023-12-20T21:49:39;96943.84;;;4.21;95.38
47366;BME280;33105;47.964;7.982;2023-12-20T21:57:53;96930.38;;;4.45;91.93
47366;BME280;33105;47.964;7.982;2023-12-20T22:05:06;96931.53;;;4.63;90.91
47366;BME280;33105;47.964;7.982;2023-12-20T22:08:19;96915.47;;;4.68;90.55
47366;BME280;33105;47.964;7.982;2023-12-20T22:11:41;96922.78;;;4.61;91.76
47366;BME280;33105;47.964;7.982;2023-12-20T22:19:45;96914.63;;;4.67;91.22
47366;BME280;33105;47.964;7.982;2023-12-20T22:23:30;96925.59;;;4.72;90.68
47366;BME280;33105;47.964;7.982;2023-12-20T22:27:06;96924.84;;;4.65;92.21
47366;BME280;33105;47.964;7.982;2023-12-20T22:30:58;96916.59;;;4.78;89.61
47366;BME280;33105;47.964;7.982;2023-12-20T22:34:03;96922.66;;;4.74;90.01
47366;BME280;33105;47.964;7.982;2023-12-20T22:46:43;96896.03;;;4.96;89.19
47366;BME280;33105;47.964;7.982;2023-12-20T23:00:19;96888.47;;;4.79;92.27
47366;BME280;33105;47.964;7.982;2023-12-20T23:09:11;96876.41;;;5.00;93.40
47366;BME280;33105;47.964;7.982;2023-12-20T23:12:12;96868.38;;;4.94;93.71
47366;BME280;33105;47.964;7.982;2023-12-20T23:37:08;96811.91;;;5.16;89.11
47366;BME280;33105;47.964;7.982;2023-12-20T23:50:15;96773.06;;;5.22;91.00
47366;BME280;33105;47.964;7.982;2023-12-20T23:54:21;96769.28;;;5.23;91.42
47366;BME280;33105;47.964;7.982;2023-12-20T23:57:51;96759.34;;;5.35;88.97
